createdAt,value
2019-05-25T00:00:36.825Z,13.9
2019-05-25T00:01:37.028Z,14
2019-05-25T00:02:37.130Z,14
2019-05-25T00:03:37.161Z,13.9
2019-05-25T00:04:37.342Z,13.9
2019-05-25T00:05:37.594Z,13.9
2019-05-25T00:06:37.912Z,13.8
2019-05-25T00:07:37.879Z,13.9
2019-05-25T00:08:37.973Z,13.8
2019-05-25T00:09:38.175Z,13.8
2019-05-25T00:10:38.365Z,13.8
2019-05-25T00:11:37.520Z,14
2019-05-25T00:12:38.838Z,13.9
2019-05-25T00:13:38.821Z,13.8
2019-05-25T00:14:38.868Z,13.9
2019-05-25T00:15:39.147Z,13.9
2019-05-25T00:16:39.056Z,13.8
2019-05-25T00:17:39.440Z,13.9
2019-05-25T00:18:39.546Z,13.9
2019-05-25T00:19:39.930Z,13.8
2019-05-25T00:20:40.054Z,13.7
2019-05-25T00:21:40.150Z,13.7
2019-05-25T00:22:40.076Z,13.8
2019-05-25T00:23:40.584Z,13.8
2019-05-25T00:24:38.138Z,14
2019-05-25T00:25:38.076Z,13.8
2019-05-25T00:26:40.858Z,13.7
2019-05-25T00:27:38.308Z,13.8
2019-05-25T00:28:41.324Z,13.8
2019-05-25T00:29:38.303Z,13.6
2019-05-25T00:30:41.512Z,13.5
2019-05-25T00:31:38.412Z,13.6
2019-05-25T00:32:38.444Z,13.7
2019-05-25T00:33:38.500Z,13.5
2019-05-25T00:34:38.610Z,13.4
2019-05-25T00:35:38.608Z,13.3
2019-05-25T00:36:38.885Z,13.3
2019-05-25T00:37:38.799Z,13.3
2019-05-25T00:38:38.931Z,13.2
2019-05-25T00:39:39.064Z,13
2019-05-25T00:40:38.867Z,13
2019-05-25T00:41:38.933Z,13.1
2019-05-25T00:42:39.115Z,13.2
2019-05-25T00:43:39.033Z,13.3
2019-05-25T00:44:39.070Z,13.1
2019-05-25T00:45:39.113Z,13.1
2019-05-25T00:46:39.177Z,13.2
2019-05-25T00:47:39.444Z,13.1
2019-05-25T00:48:39.401Z,13.1
2019-05-25T00:49:39.323Z,13.2
2019-05-25T00:50:39.389Z,13.1
2019-05-25T00:51:39.452Z,13.1
2019-05-25T00:52:39.520Z,13.1
2019-05-25T00:53:39.592Z,13.2
2019-05-25T00:54:39.630Z,13.2
2019-05-25T00:55:39.704Z,13.3
2019-05-25T00:56:39.726Z,13.3
2019-05-25T00:57:39.769Z,13.2
2019-05-25T00:58:39.866Z,13.2
2019-05-25T00:59:39.912Z,13.2
2019-05-25T01:00:39.934Z,13.1
2019-05-25T01:01:40.023Z,13.1
2019-05-25T01:02:40.216Z,12.9
2019-05-25T01:03:40.109Z,12.8
2019-05-25T01:04:40.145Z,12.8
2019-05-25T01:05:40.199Z,12.7
2019-05-25T01:06:40.264Z,12.7
2019-05-25T01:07:40.304Z,12.6
2019-05-25T01:08:40.374Z,12.6
2019-05-25T01:09:40.433Z,12.5
2019-05-25T01:10:40.502Z,12.5
2019-05-25T01:11:40.643Z,12.4
2019-05-25T01:12:40.685Z,12.1
2019-05-25T01:13:40.739Z,12
2019-05-25T01:14:40.921Z,12.1
2019-05-25T01:15:40.882Z,12.1
2019-05-25T01:16:41.148Z,12.2
2019-05-25T01:17:41.194Z,12.2
2019-05-25T01:18:41.151Z,12.1
2019-05-25T01:19:41.346Z,12.2
2019-05-25T01:20:41.048Z,12.2
2019-05-25T01:21:41.190Z,12.3
2019-05-25T01:22:41.282Z,12.3
2019-05-25T01:23:41.414Z,12.3
2019-05-25T01:24:44.570Z,12.4
2019-05-25T01:25:41.335Z,12.4
2019-05-25T01:26:41.437Z,12.4
2019-05-25T01:27:41.473Z,12.3
2019-05-25T01:28:41.516Z,12.5
2019-05-25T01:29:41.605Z,12.4
2019-05-25T01:30:41.656Z,12.4
2019-05-25T01:31:41.686Z,12.3
2019-05-25T01:32:41.793Z,12.3
2019-05-25T01:33:41.795Z,12.2
2019-05-25T01:34:41.874Z,12.3
2019-05-25T01:35:41.966Z,12.4
2019-05-25T01:36:42.032Z,12.4
2019-05-25T01:37:42.126Z,12.4
2019-05-25T01:38:42.163Z,12.4
2019-05-25T01:39:42.197Z,12.3
2019-05-25T01:40:42.257Z,12.3
2019-05-25T01:41:42.307Z,12.3
2019-05-25T01:42:42.377Z,12.1
2019-05-25T01:43:42.418Z,12.1
2019-05-25T01:44:42.482Z,12.3
2019-05-25T01:45:42.535Z,12.2
2019-05-25T01:46:42.600Z,12.3
2019-05-25T01:47:42.705Z,12.4
2019-05-25T01:48:42.699Z,12.5
2019-05-25T01:49:42.809Z,12.4
2019-05-25T01:50:42.829Z,12.3
2019-05-25T01:51:42.885Z,12.3
2019-05-25T01:52:42.984Z,12.2
2019-05-25T01:53:42.996Z,12.1
2019-05-25T01:54:57.078Z,12.2
2019-05-25T01:55:43.397Z,12.1
2019-05-25T01:56:43.624Z,12.1
2019-05-25T01:57:43.710Z,12
2019-05-25T01:58:43.744Z,12.2
2019-05-25T01:59:43.854Z,12.3
2019-05-25T02:00:43.864Z,12.2
2019-05-25T02:01:43.916Z,12.1
2019-05-25T02:02:44.002Z,12.1
2019-05-25T02:03:44.015Z,12
2019-05-25T02:04:44.087Z,11.9
2019-05-25T02:05:44.217Z,12
2019-05-25T02:06:44.155Z,12
2019-05-25T02:07:44.222Z,12
2019-05-25T02:08:44.219Z,12
2019-05-25T02:09:44.318Z,11.9
2019-05-25T02:10:44.382Z,11.9
2019-05-25T02:11:44.410Z,11.8
2019-05-25T02:12:44.483Z,11.7
2019-05-25T02:13:44.570Z,11.8
2019-05-25T02:14:44.682Z,11.9
2019-05-25T02:15:44.712Z,11.9
2019-05-25T02:16:44.750Z,11.9
2019-05-25T02:17:44.833Z,12
2019-05-25T02:18:45.675Z,12
2019-05-25T02:19:44.982Z,12
2019-05-25T02:20:45.051Z,11.8
2019-05-25T02:21:45.073Z,11.7
2019-05-25T02:22:45.170Z,11.7
2019-05-25T02:23:45.195Z,11.8
2019-05-25T02:24:45.289Z,11.8
2019-05-25T02:25:45.337Z,11.7
2019-05-25T02:26:45.383Z,11.7
2019-05-25T02:27:45.448Z,11.6
2019-05-25T02:28:45.495Z,11.7
2019-05-25T02:29:45.577Z,11.6
2019-05-25T02:30:45.674Z,11.6
2019-05-25T02:31:45.739Z,11.6
2019-05-25T02:32:45.813Z,11.6
2019-05-25T02:33:45.877Z,11.5
2019-05-25T02:34:45.910Z,11.5
2019-05-25T02:35:46.003Z,11.4
2019-05-25T02:36:46.058Z,11.3
2019-05-25T02:37:46.058Z,11.3
2019-05-25T02:38:46.146Z,11.5
2019-05-25T02:39:46.185Z,11.5
2019-05-25T02:40:46.241Z,11.4
2019-05-25T02:41:46.308Z,11.4
2019-05-25T02:42:46.356Z,11.3
2019-05-25T02:43:46.408Z,11.3
2019-05-25T02:44:46.474Z,11.3
2019-05-25T02:45:46.553Z,11.4
2019-05-25T02:46:46.583Z,11.5
2019-05-25T02:47:46.635Z,11.4
2019-05-25T02:48:46.701Z,11.4
2019-05-25T02:49:46.701Z,11.4
2019-05-25T02:50:46.770Z,11.3
2019-05-25T02:51:46.856Z,11.3
2019-05-25T02:52:46.864Z,11.4
2019-05-25T02:53:46.978Z,11.4
2019-05-25T02:54:47.095Z,11.4
2019-05-25T02:55:47.050Z,11.3
2019-05-25T02:56:47.070Z,11.2
2019-05-25T02:57:47.148Z,11.2
2019-05-25T02:58:47.221Z,11.3
2019-05-25T02:59:47.272Z,11.3
2019-05-25T03:00:47.347Z,11.2
2019-05-25T03:01:47.362Z,11.3
2019-05-25T03:02:47.895Z,11.3
2019-05-25T03:03:47.689Z,11.3
2019-05-25T03:04:47.543Z,11.3
2019-05-25T03:05:47.575Z,11.3
2019-05-25T03:06:47.733Z,11.4
2019-05-25T03:07:47.760Z,11.4
2019-05-25T03:08:47.815Z,11.3
2019-05-25T03:09:48.563Z,11.3
2019-05-25T03:11:47.985Z,11.3
2019-05-25T03:12:48.080Z,11.1
2019-05-25T03:13:48.102Z,11
2019-05-25T03:14:48.231Z,10.9
2019-05-25T03:15:48.334Z,10.9
2019-05-25T03:16:48.335Z,10.9
2019-05-25T03:17:48.662Z,11
2019-05-25T03:18:48.424Z,11
2019-05-25T03:19:48.379Z,10.9
2019-05-25T03:20:48.498Z,10.9
2019-05-25T03:21:48.494Z,10.8
2019-05-25T03:22:48.547Z,10.8
2019-05-25T03:23:48.697Z,10.8
2019-05-25T03:24:48.677Z,10.9
2019-05-25T03:25:50.116Z,11
2019-05-25T03:26:48.802Z,11
2019-05-25T03:27:48.835Z,11
2019-05-25T03:28:48.915Z,10.9
2019-05-25T03:29:48.961Z,10.9
2019-05-25T03:30:49.022Z,10.7
2019-05-25T03:31:49.049Z,10.8
2019-05-25T03:32:49.336Z,10.8
2019-05-25T03:33:49.208Z,10.9
2019-05-25T03:34:49.247Z,10.8
2019-05-25T03:35:49.313Z,10.9
2019-05-25T03:36:49.452Z,11
2019-05-25T03:37:49.433Z,11.1
2019-05-25T03:38:49.742Z,11.2
2019-05-25T03:39:49.548Z,11.3
2019-05-25T03:40:49.605Z,11.3
2019-05-25T03:41:49.665Z,11.4
2019-05-25T03:42:49.696Z,11.2
2019-05-25T03:43:49.825Z,11.1
2019-05-25T03:44:49.836Z,11
2019-05-25T03:45:49.876Z,10.8
2019-05-25T03:46:49.942Z,10.8
2019-05-25T03:47:49.968Z,10.8
2019-05-25T03:48:50.039Z,10.8
2019-05-25T03:49:50.115Z,10.8
2019-05-25T03:50:50.143Z,10.7
2019-05-25T03:51:50.156Z,10.5
2019-05-25T03:52:50.253Z,10.5
2019-05-25T03:53:50.308Z,10.4
2019-05-25T03:54:50.396Z,10.5
2019-05-25T03:56:04.650Z,10.6
2019-05-25T03:56:50.540Z,10.6
2019-05-25T03:57:50.558Z,10.6
2019-05-25T03:58:50.637Z,10.5
2019-05-25T03:59:50.631Z,10.5
2019-05-25T04:00:50.842Z,10.6
2019-05-25T04:01:50.706Z,10.6
2019-05-25T04:02:50.817Z,10.6
2019-05-25T04:03:50.877Z,10.7
2019-05-25T04:04:51.031Z,10.9
2019-05-25T04:05:50.995Z,10.9
2019-05-25T04:06:51.063Z,10.8
2019-05-25T04:07:51.660Z,10.9
2019-05-25T04:08:51.233Z,10.7
2019-05-25T04:09:51.255Z,10.7
2019-05-25T04:10:53.903Z,10.9
2019-05-25T04:11:51.336Z,10.9
2019-05-25T04:12:51.375Z,11
2019-05-25T04:13:51.605Z,11.2
2019-05-25T04:14:55.514Z,11.4
2019-05-25T04:16:51.865Z,11.5
2019-05-25T04:17:52.533Z,11.4
2019-05-25T04:18:51.995Z,11.3
2019-05-25T04:19:52.006Z,11.4
2019-05-25T04:20:52.173Z,11.3
2019-05-25T04:21:52.101Z,11.4
2019-05-25T04:22:52.145Z,11.6
2019-05-25T04:23:52.225Z,11.5
2019-05-25T04:24:52.254Z,11.5
2019-05-25T04:25:52.397Z,11.6
2019-05-25T04:26:52.352Z,11.6
2019-05-25T04:27:52.437Z,11.6
2019-05-25T04:28:52.462Z,11.7
2019-05-25T04:29:52.542Z,11.7
2019-05-25T04:30:52.530Z,11.6
2019-05-25T04:31:52.657Z,11.5
2019-05-25T04:32:52.718Z,11.5
2019-05-25T04:33:52.925Z,11.3
2019-05-25T04:34:53.067Z,11.2
2019-05-25T04:35:53.021Z,11.2
2019-05-25T04:36:53.083Z,11.2
2019-05-25T04:37:53.035Z,11.1
2019-05-25T04:38:53.031Z,10.9
2019-05-25T04:39:53.056Z,10.7
2019-05-25T04:40:53.231Z,10.8
2019-05-25T04:41:53.271Z,10.8
2019-05-25T04:42:53.298Z,10.7
2019-05-25T04:43:53.391Z,10.6
2019-05-25T04:44:53.376Z,10.6
2019-05-25T04:45:53.436Z,10.7
2019-05-25T04:46:53.474Z,10.7
2019-05-25T04:47:53.553Z,10.7
2019-05-25T04:48:53.573Z,10.5
2019-05-25T04:49:53.681Z,10.7
2019-05-25T04:50:53.695Z,10.6
2019-05-25T04:51:53.765Z,10.7
2019-05-25T04:52:53.782Z,10.7
2019-05-25T04:53:53.886Z,10.7
2019-05-25T04:54:53.916Z,10.7
2019-05-25T04:55:53.966Z,10.8
2019-05-25T04:56:54.028Z,10.9
2019-05-25T04:57:54.078Z,10.9
2019-05-25T04:58:54.139Z,10.9
2019-05-25T04:59:55.590Z,10.9
2019-05-25T05:00:54.217Z,11
2019-05-25T05:01:54.265Z,11.1
2019-05-25T05:02:54.344Z,11
2019-05-25T05:03:54.401Z,11
2019-05-25T05:04:54.498Z,11
2019-05-25T05:05:54.496Z,11
2019-05-25T05:06:54.548Z,11.1
2019-05-25T05:07:54.654Z,11.1
2019-05-25T05:08:54.745Z,11.1
2019-05-25T05:10:02.442Z,11.2
2019-05-25T05:10:54.847Z,11.2
2019-05-25T05:11:54.998Z,11.3
2019-05-25T05:12:54.986Z,11.3
2019-05-25T05:13:55.085Z,11.3
2019-05-25T05:14:56.501Z,11.3
2019-05-25T05:15:55.155Z,11.4
2019-05-25T05:16:55.236Z,11.5
2019-05-25T05:17:55.284Z,11.6
2019-05-25T05:18:55.333Z,11.6
2019-05-25T05:19:55.388Z,11.6
2019-05-25T05:20:55.492Z,11.6
2019-05-25T05:21:55.523Z,11.7
2019-05-25T05:22:55.543Z,11.6
2019-05-25T05:23:55.592Z,11.6
2019-05-25T05:24:55.654Z,11.6
2019-05-25T05:25:55.773Z,11.7
2019-05-25T05:26:56.495Z,11.6
2019-05-25T05:27:55.871Z,11.7
2019-05-25T05:28:55.880Z,11.7
2019-05-25T05:29:55.944Z,11.7
2019-05-25T05:30:56.043Z,11.8
2019-05-25T05:31:56.115Z,11.9
2019-05-25T05:32:56.108Z,11.8
2019-05-25T05:33:56.176Z,11.7
2019-05-25T05:34:56.217Z,11.8
2019-05-25T05:35:56.274Z,11.8
2019-05-25T05:36:56.357Z,11.9
2019-05-25T05:37:56.370Z,11.9
2019-05-25T05:38:56.408Z,11.9
2019-05-25T05:39:56.488Z,12
2019-05-25T05:40:56.609Z,11.9
2019-05-25T05:41:56.675Z,12.1
2019-05-25T05:42:56.734Z,12
2019-05-25T05:43:56.785Z,11.9
2019-05-25T05:44:56.836Z,11.9
2019-05-25T05:45:56.886Z,12.1
2019-05-25T05:46:56.962Z,12.1
2019-05-25T05:47:57.029Z,12.1
2019-05-25T05:48:57.060Z,12.1
2019-05-25T05:49:57.114Z,12
2019-05-25T05:50:57.184Z,12
2019-05-25T05:51:57.256Z,12.2
2019-05-25T05:52:57.351Z,12.3
2019-05-25T05:53:57.354Z,12.3
2019-05-25T05:54:57.626Z,12.3
2019-05-25T05:55:57.567Z,12.3
2019-05-25T05:57:11.007Z,12.4
2019-05-25T05:57:57.642Z,12.5
2019-05-25T05:58:57.713Z,12.4
2019-05-25T06:00:06.104Z,12.6
2019-05-25T06:00:57.767Z,12.6
2019-05-25T06:01:57.859Z,12.5
2019-05-25T06:02:58.036Z,12.5
2019-05-25T06:03:57.972Z,12.5
2019-05-25T06:04:58.057Z,12.6
2019-05-25T06:05:58.030Z,12.6
2019-05-25T06:06:58.123Z,12.6
2019-05-25T06:07:58.160Z,12.7
2019-05-25T06:08:58.238Z,12.8
2019-05-25T06:09:58.287Z,12.8
2019-05-25T06:10:58.365Z,12.7
2019-05-25T06:11:58.412Z,12.8
2019-05-25T06:12:58.482Z,12.7
2019-05-25T06:13:58.563Z,12.7
2019-05-25T06:14:58.562Z,12.9
2019-05-25T06:15:58.667Z,12.9
2019-05-25T06:16:58.734Z,12.9
2019-05-25T06:17:58.788Z,13
2019-05-25T06:18:58.832Z,12.9
2019-05-25T06:19:58.973Z,12.8
2019-05-25T06:20:59.007Z,12.8
2019-05-25T06:21:59.077Z,12.8
2019-05-25T06:22:59.101Z,12.7
2019-05-25T06:23:59.204Z,12.6
2019-05-25T06:24:59.215Z,12.6
2019-05-25T06:25:59.354Z,12.7
2019-05-25T06:26:59.379Z,12.9
2019-05-25T06:27:59.465Z,13.1
2019-05-25T06:28:59.483Z,13
2019-05-25T06:29:59.515Z,13.1
2019-05-25T06:30:59.570Z,13.3
2019-05-25T06:31:59.618Z,13.1
2019-05-25T06:32:59.656Z,13.1
2019-05-25T06:33:59.755Z,13.2
2019-05-25T06:34:59.793Z,13.2
2019-05-25T06:35:59.824Z,13.2
2019-05-25T06:36:59.878Z,13.4
2019-05-25T06:38:04.757Z,13.5
2019-05-25T06:41:00.350Z,13.7
2019-05-25T06:42:00.546Z,13.8
2019-05-25T06:43:00.516Z,13.9
2019-05-25T06:44:00.619Z,13.8
2019-05-25T06:45:01.599Z,13.8
2019-05-25T06:47:06.166Z,13.8
2019-05-25T06:48:06.244Z,13.7
2019-05-25T06:49:06.346Z,13.8
2019-05-25T06:50:06.424Z,13.9
2019-05-25T06:51:06.407Z,14.1
2019-05-25T06:52:06.486Z,14.2
2019-05-25T06:53:06.657Z,14.2
2019-05-25T06:54:06.662Z,14.3
2019-05-25T06:55:06.656Z,14.3
2019-05-25T06:56:06.735Z,14.3
2019-05-25T06:57:06.782Z,14.4
2019-05-25T06:58:06.831Z,14.5
2019-05-25T06:59:06.854Z,14.5
2019-05-25T07:00:07.000Z,14.6
2019-05-25T07:01:07.118Z,14.7
2019-05-25T07:02:07.124Z,14.6
2019-05-25T07:03:07.289Z,14.5
2019-05-25T07:04:07.252Z,14.5
2019-05-25T07:05:07.533Z,14.6
2019-05-25T07:06:07.400Z,14.8
2019-05-25T07:07:07.535Z,14.9
2019-05-25T07:08:07.533Z,15
2019-05-25T07:09:07.534Z,15.1
2019-05-25T07:10:07.726Z,15.2
2019-05-25T07:11:07.740Z,15.2
2019-05-25T07:12:07.720Z,15.1
2019-05-25T07:13:07.805Z,15
2019-05-25T07:14:09.066Z,15.1
2019-05-25T07:15:07.777Z,14.9
2019-05-25T07:16:07.815Z,14.8
2019-05-25T07:17:07.846Z,14.9
2019-05-25T07:18:07.924Z,15
2019-05-25T07:19:08.750Z,14.9
2019-05-25T07:20:08.139Z,14.8
2019-05-25T07:21:08.577Z,15
2019-05-25T07:22:08.196Z,15
2019-05-25T07:23:08.235Z,15
2019-05-25T07:24:08.488Z,15
2019-05-25T07:25:08.312Z,15.1
2019-05-25T07:26:08.897Z,15.2
2019-05-25T07:27:08.400Z,15.3
2019-05-25T07:28:08.453Z,15.4
2019-05-25T07:29:08.540Z,15.3
2019-05-25T07:30:35.905Z,15.4
2019-05-25T07:31:11.995Z,15.2
2019-05-25T07:32:08.743Z,15.2
2019-05-25T07:33:08.833Z,15.4
2019-05-25T07:34:08.872Z,15.4
2019-05-25T07:35:09.924Z,15.5
2019-05-25T07:36:09.465Z,15.7
2019-05-25T07:37:09.009Z,15.6
2019-05-25T07:38:09.125Z,15.5
2019-05-25T07:39:09.132Z,15.4
2019-05-25T07:40:10.240Z,15.4
2019-05-25T07:41:09.301Z,15.6
2019-05-25T07:42:09.318Z,15.6
2019-05-25T07:43:09.378Z,15.7
2019-05-25T07:44:09.422Z,15.9
2019-05-25T07:45:09.472Z,15.7
2019-05-25T07:46:09.514Z,15.6
2019-05-25T07:47:09.621Z,15.5
2019-05-25T07:48:09.672Z,15.7
2019-05-25T07:49:10.325Z,15.7
2019-05-25T07:50:09.858Z,15.6
2019-05-25T07:51:09.808Z,15.5
2019-05-25T07:52:09.957Z,15.6
2019-05-25T07:53:09.923Z,15.8
2019-05-25T07:54:10.102Z,16
2019-05-25T07:55:10.073Z,16.2
2019-05-25T07:56:10.118Z,16.2
2019-05-25T07:57:10.162Z,16
2019-05-25T07:58:17.103Z,16.2
2019-05-25T07:59:10.344Z,16.3
2019-05-25T08:00:15.525Z,16.2
2019-05-25T08:01:10.392Z,16.1
2019-05-25T08:02:11.614Z,16.1
2019-05-25T08:03:10.551Z,16.2
2019-05-25T08:04:10.549Z,16.4
2019-05-25T08:05:10.622Z,16.6
2019-05-25T08:06:10.693Z,16.7
2019-05-25T08:07:10.724Z,16.6
2019-05-25T08:08:10.860Z,16.4
2019-05-25T08:09:10.822Z,16.3
2019-05-25T08:10:10.860Z,16.6
2019-05-25T08:11:10.952Z,16.8
2019-05-25T08:12:11.031Z,16.9
2019-05-25T08:13:11.053Z,17.2
2019-05-25T08:14:11.142Z,17.5
2019-05-25T08:15:11.272Z,17.6
2019-05-25T08:16:11.281Z,17.7
2019-05-25T08:17:11.312Z,17.7
2019-05-25T08:18:11.401Z,17.7
2019-05-25T08:19:11.387Z,17.6
2019-05-25T08:20:11.510Z,17.4
2019-05-25T08:21:11.533Z,17.3
2019-05-25T08:22:11.577Z,17.1
2019-05-25T08:23:11.642Z,17.2
2019-05-25T08:24:11.705Z,17.2
2019-05-25T08:25:11.709Z,17.2
2019-05-25T08:26:11.832Z,17.1
2019-05-25T08:27:11.863Z,17
2019-05-25T08:28:12.012Z,16.5
2019-05-25T08:29:12.039Z,16.5
2019-05-25T08:30:12.098Z,16.9
2019-05-25T08:31:12.114Z,17
2019-05-25T08:32:12.184Z,16.9
2019-05-25T08:33:12.234Z,17.1
2019-05-25T08:34:12.359Z,17.1
2019-05-25T08:35:12.435Z,16.9
2019-05-25T08:36:12.401Z,16.6
2019-05-25T08:37:12.552Z,16.5
2019-05-25T08:38:12.557Z,16.3
2019-05-25T08:39:13.679Z,16.2
2019-05-25T08:40:12.721Z,16.2
2019-05-25T08:41:12.862Z,16.3
2019-05-25T08:42:12.877Z,16.4
2019-05-25T08:43:12.931Z,16.7
2019-05-25T08:44:13.013Z,16.9
2019-05-25T08:45:13.062Z,16.9
2019-05-25T08:46:13.137Z,17
2019-05-25T08:47:13.293Z,17.1
2019-05-25T08:48:13.265Z,17.4
2019-05-25T08:49:13.349Z,17.6
2019-05-25T08:50:35.377Z,17.7
2019-05-25T08:51:13.416Z,17.7
2019-05-25T08:52:13.482Z,17.8
2019-05-25T08:53:13.491Z,17.9
2019-05-25T08:54:13.575Z,18
2019-05-25T08:55:13.632Z,18
2019-05-25T08:56:13.780Z,18.2
2019-05-25T08:57:16.360Z,18.2
2019-05-25T08:58:13.804Z,18.2
2019-05-25T08:59:13.869Z,18.2
2019-05-25T09:00:13.902Z,18.3
2019-05-25T09:01:13.942Z,18.5
2019-05-25T09:02:14.036Z,18.1
2019-05-25T09:03:16.544Z,17.6
2019-05-25T09:04:14.166Z,17.6
2019-05-25T09:05:14.146Z,17.2
2019-05-25T09:06:14.215Z,17
2019-05-25T09:07:14.285Z,16.9
2019-05-25T09:08:14.345Z,17.3
2019-05-25T09:09:14.424Z,17.5
2019-05-25T09:10:14.471Z,25.1
2019-05-25T09:11:14.545Z,17.6
2019-05-25T09:12:14.584Z,17.5
2019-05-25T09:13:16.740Z,17.8
2019-05-25T09:14:14.726Z,18.1
2019-05-25T09:15:14.853Z,18.1
2019-05-25T09:16:14.857Z,17.7
2019-05-25T09:17:14.931Z,18
2019-05-25T09:18:14.975Z,33.1
2019-05-25T09:19:15.038Z,18.3
2019-05-25T09:20:15.064Z,18.3
2019-05-25T09:21:15.192Z,18.3
2019-05-25T09:22:15.187Z,18.7
2019-05-25T09:23:17.028Z,18.6
2019-05-25T09:24:15.329Z,18.3
2019-05-25T09:25:15.324Z,18
2019-05-25T09:26:15.397Z,17.7
2019-05-25T09:27:15.458Z,17.6
2019-05-25T09:28:15.507Z,32.8
2019-05-25T09:29:15.537Z,18.1
2019-05-25T09:30:15.620Z,18.4
2019-05-25T09:31:15.699Z,18.6
2019-05-25T09:32:15.766Z,18.6
2019-05-25T09:33:16.325Z,18.4
2019-05-25T09:34:15.868Z,18.4
2019-05-25T09:35:15.891Z,18.8
2019-05-25T09:36:16.019Z,18.7
2019-05-25T09:37:16.118Z,18.8
2019-05-25T09:38:16.072Z,33.6
2019-05-25T09:39:16.143Z,18.7
2019-05-25T09:40:16.244Z,18.3
2019-05-25T09:41:16.200Z,18
2019-05-25T09:42:16.286Z,18
2019-05-25T09:43:16.439Z,18.2
2019-05-25T09:44:16.412Z,18.4
2019-05-25T09:45:16.508Z,18.6
2019-05-25T09:46:16.570Z,18.8
2019-05-25T09:47:16.617Z,19.2
2019-05-25T09:48:16.673Z,19.4
2019-05-25T09:49:16.748Z,19.3
2019-05-25T09:50:16.857Z,19.2
2019-05-25T09:51:16.834Z,18.8
2019-05-25T09:52:16.910Z,18.9
2019-05-25T09:53:18.730Z,19.1
2019-05-25T09:54:17.060Z,19.2
2019-05-25T09:55:17.177Z,19.1
2019-05-25T09:56:17.133Z,19.1
2019-05-25T09:57:17.245Z,19.1
2019-05-25T09:58:17.319Z,18.9
2019-05-25T09:59:20.267Z,19
2019-05-25T10:00:17.409Z,19.6
2019-05-25T10:01:17.464Z,19.7
2019-05-25T10:02:17.484Z,19.5
2019-05-25T10:03:18.832Z,19.8
2019-05-25T10:04:17.618Z,20.1
2019-05-25T10:05:17.708Z,20
2019-05-25T10:06:17.721Z,20
2019-05-25T10:07:17.772Z,19.3
2019-05-25T10:08:17.835Z,19.3
2019-05-25T10:09:17.940Z,19.4
2019-05-25T10:10:17.960Z,19.5
2019-05-25T10:11:18.728Z,19.7
2019-05-25T10:12:18.089Z,20
2019-05-25T10:13:20.202Z,20.1
2019-05-25T10:14:18.219Z,20.2
2019-05-25T10:15:18.342Z,20.5
2019-05-25T10:16:18.374Z,20.2
2019-05-25T10:17:18.362Z,19.9
2019-05-25T10:18:18.417Z,20
2019-05-25T10:19:18.587Z,19.8
2019-05-25T10:20:18.558Z,19.5
2019-05-25T10:21:18.569Z,19.5
2019-05-25T10:22:18.618Z,19.7
2019-05-25T10:23:20.194Z,19.9
2019-05-25T10:24:18.757Z,19.9
2019-05-25T10:25:19.427Z,34
2019-05-25T10:26:22.455Z,18.9
2019-05-25T10:27:18.948Z,19
2019-05-25T10:28:19.037Z,18.9
2019-05-25T10:29:34.137Z,19.3
2019-05-25T10:30:32.873Z,19.9
2019-05-25T10:31:19.529Z,20.1
2019-05-25T10:32:19.466Z,19.5
2019-05-25T10:33:21.822Z,19.7
2019-05-25T10:34:19.416Z,19.6
2019-05-25T10:35:19.797Z,20
2019-05-25T10:36:19.423Z,19.9
2019-05-25T10:37:19.532Z,20.1
2019-05-25T10:38:19.559Z,20.3
2019-05-25T10:39:20.654Z,20.7
2019-05-25T10:40:19.658Z,21
2019-05-25T10:41:19.855Z,21
2019-05-25T10:42:19.886Z,21.4
2019-05-25T10:43:22.065Z,21.1
2019-05-25T10:44:20.074Z,20.8
2019-05-25T10:45:20.492Z,20.9
2019-05-25T10:46:20.000Z,20.9
2019-05-25T10:47:20.937Z,28
2019-05-25T10:48:20.187Z,20.7
2019-05-25T10:49:21.755Z,20.5
2019-05-25T10:50:20.963Z,20.6
2019-05-25T10:51:21.278Z,20.9
2019-05-25T10:52:20.365Z,20.6
2019-05-25T10:53:23.725Z,20.1
2019-05-25T10:54:21.622Z,20
2019-05-25T10:55:22.095Z,20.1
2019-05-25T10:56:21.176Z,20.5
2019-05-25T10:57:22.265Z,20.4
2019-05-25T10:58:20.712Z,20
2019-05-25T10:59:23.351Z,19.7
2019-05-25T11:00:20.760Z,19.5
2019-05-25T11:01:20.911Z,19.8
2019-05-25T11:02:20.973Z,20.2
2019-05-25T11:03:23.041Z,20.6
2019-05-25T11:04:21.475Z,20.6
2019-05-25T11:05:21.568Z,20.1
2019-05-25T11:06:21.119Z,27.2
2019-05-25T11:07:22.172Z,19.9
2019-05-25T11:08:22.066Z,19.8
2019-05-25T11:09:22.381Z,19.9
2019-05-25T11:10:22.548Z,27.3
2019-05-25T11:11:23.344Z,20.4
2019-05-25T11:12:25.979Z,56.4
2019-05-25T11:13:21.919Z,20.8
2019-05-25T11:14:24.517Z,20.9
2019-05-25T11:15:23.145Z,20.7
2019-05-25T11:16:23.896Z,20.8
2019-05-25T11:17:23.916Z,21
2019-05-25T11:18:25.030Z,20.6
2019-05-25T11:19:24.257Z,20.7
2019-05-25T11:20:22.891Z,20.6
2019-05-25T11:21:21.959Z,20.3
2019-05-25T11:22:22.054Z,20.2
2019-05-25T11:23:22.110Z,20.5
2019-05-25T11:24:22.150Z,20.5
2019-05-25T11:25:22.233Z,20.5
2019-05-25T11:26:22.321Z,21.1
2019-05-25T11:27:22.391Z,21.1
2019-05-25T11:28:22.532Z,21.1
2019-05-25T11:29:22.712Z,21.5
2019-05-25T11:30:22.512Z,21.3
2019-05-25T11:31:22.507Z,20.8
2019-05-25T11:32:22.634Z,20.8
2019-05-25T11:33:22.674Z,21
2019-05-25T11:34:22.696Z,20.9
2019-05-25T11:35:22.810Z,20.8
2019-05-25T11:36:22.801Z,20.6
2019-05-25T11:37:22.919Z,21.1
2019-05-25T11:38:22.952Z,35.3
2019-05-25T11:39:22.994Z,21
2019-05-25T11:40:23.048Z,20.9
2019-05-25T11:41:23.105Z,21
2019-05-25T11:42:23.156Z,20.9
2019-05-25T11:43:23.226Z,20.7
2019-05-25T11:44:23.289Z,21.1
2019-05-25T11:45:23.339Z,21.1
2019-05-25T11:46:23.378Z,20.8
2019-05-25T11:47:23.412Z,20.7
2019-05-25T11:48:23.492Z,20.4
2019-05-25T11:49:23.504Z,20.5
2019-05-25T11:50:23.622Z,20.7
2019-05-25T11:51:23.655Z,20.6
2019-05-25T11:52:23.744Z,20.8
2019-05-25T11:53:23.786Z,20.8
2019-05-25T11:54:23.936Z,20.9
2019-05-25T11:55:24.040Z,21
2019-05-25T11:56:24.068Z,21.2
2019-05-25T11:57:24.142Z,21.5
2019-05-25T11:58:24.141Z,21.8
2019-05-25T11:59:24.191Z,21.5
2019-05-25T12:00:25.813Z,21.3
2019-05-25T12:01:24.364Z,21.4
2019-05-25T12:02:24.346Z,21
2019-05-25T12:03:24.385Z,21.2
2019-05-25T12:04:24.435Z,35.7
2019-05-25T12:05:24.437Z,21.3
2019-05-25T12:06:25.131Z,21.4
2019-05-25T12:07:24.749Z,28.6
2019-05-25T12:08:24.733Z,21.9
2019-05-25T12:11:24.805Z,21.3
2019-05-25T12:12:25.020Z,21.4
2019-05-25T12:13:24.890Z,21.6
2019-05-25T12:14:24.975Z,21.3
2019-05-25T12:15:25.012Z,21
2019-05-25T12:16:25.083Z,21.5
2019-05-25T12:17:25.155Z,21.5
2019-05-25T12:18:25.194Z,21.4
2019-05-25T12:19:25.256Z,21.6
2019-05-25T12:20:25.291Z,21.8
2019-05-25T12:21:25.331Z,22.3
2019-05-25T12:22:25.439Z,22.2
2019-05-25T12:23:25.524Z,22
2019-05-25T12:24:25.554Z,22
2019-05-25T12:25:25.602Z,21.6
2019-05-25T12:26:25.622Z,22
2019-05-25T12:27:25.741Z,21.9
2019-05-25T12:28:25.823Z,22.2
2019-05-25T12:29:25.804Z,22.4
2019-05-25T12:30:39.599Z,22
2019-05-25T12:31:25.916Z,21.9
2019-05-25T12:32:26.003Z,22.2
2019-05-25T12:33:26.123Z,22.1
2019-05-25T12:34:26.182Z,22.4
2019-05-25T12:35:26.219Z,22.3
2019-05-25T12:36:26.253Z,22
2019-05-25T12:37:26.365Z,21.8
2019-05-25T12:38:26.376Z,21.6
2019-05-25T12:39:26.874Z,21.5
2019-05-25T12:40:26.475Z,21.8
2019-05-25T12:41:26.529Z,22.1
2019-05-25T12:42:26.602Z,22.1
2019-05-25T12:43:26.626Z,22.2
2019-05-25T12:44:26.705Z,36.2
2019-05-25T12:45:26.735Z,28.7
2019-05-25T12:46:26.774Z,21.8
2019-05-25T12:47:26.832Z,22
2019-05-25T12:48:26.871Z,22.2
2019-05-25T12:49:26.939Z,21.9
2019-05-25T12:50:27.170Z,22.2
2019-05-25T12:51:27.034Z,21.8
2019-05-25T12:52:27.103Z,21.9
2019-05-25T12:53:27.985Z,22
2019-05-25T12:54:27.315Z,21.9
2019-05-25T12:55:27.488Z,21.8
2019-05-25T12:56:27.415Z,22
2019-05-25T12:57:27.459Z,21.5
2019-05-25T12:58:27.479Z,21.6
2019-05-25T12:59:27.508Z,21.8
2019-05-25T13:00:27.659Z,22.2
2019-05-25T13:01:27.731Z,22.5
2019-05-25T13:02:27.697Z,22.5
2019-05-25T13:03:28.505Z,22.3
2019-05-25T13:04:27.829Z,22.6
2019-05-25T13:05:33.960Z,21.9
2019-05-25T13:06:27.910Z,21.5
2019-05-25T13:07:27.982Z,21.6
2019-05-25T13:08:28.041Z,21.8
2019-05-25T13:09:28.121Z,22.1
2019-05-25T13:10:28.211Z,22.1
2019-05-25T13:11:28.227Z,22.6
2019-05-25T13:12:28.314Z,22.6
2019-05-25T13:13:28.371Z,22
2019-05-25T13:14:28.480Z,22
2019-05-25T13:15:28.558Z,22.1
2019-05-25T13:16:28.572Z,21.7
2019-05-25T13:17:28.624Z,21.6
2019-05-25T13:18:28.681Z,21.8
2019-05-25T13:19:28.823Z,21.7
2019-05-25T13:20:28.795Z,21.8
2019-05-25T13:21:28.858Z,21.8
2019-05-25T13:22:28.995Z,22.2
2019-05-25T13:23:28.994Z,22.4
2019-05-25T13:24:29.095Z,22.2
2019-05-25T13:25:29.105Z,22.2
2019-05-25T13:26:29.156Z,21.9
2019-05-25T13:27:29.210Z,29.2
2019-05-25T13:28:29.259Z,22
2019-05-25T13:29:29.296Z,21.8
2019-05-25T13:30:29.553Z,21.8
2019-05-25T13:31:29.655Z,21.6
2019-05-25T13:32:29.631Z,21.3